createdAt,value
2018-12-11T00:02:00.685Z,6.20
2018-12-11T00:04:28.703Z,8.93
2018-12-11T00:06:56.741Z,8.45
2018-12-11T00:09:24.777Z,9.68
2018-12-11T00:11:52.797Z,11.12
2018-12-11T00:14:20.834Z,8.23
2018-12-11T00:16:48.934Z,15.40
2018-12-11T00:19:17.001Z,8.48
2018-12-11T00:21:45.025Z,7.47
2018-12-11T00:24:13.075Z,5.83
2018-12-11T00:26:41.101Z,8.38
2018-12-11T00:29:09.141Z,6.95
2018-12-11T00:31:37.147Z,6.95
2018-12-11T00:34:05.179Z,4.42
2018-12-11T00:36:33.289Z,8.43
2018-12-11T00:39:01.323Z,13.00
2018-12-11T00:41:29.352Z,13.85
2018-12-11T00:43:57.977Z,9.43
2018-12-11T00:46:26.013Z,8.35
2018-12-11T00:48:54.025Z,7.67
2018-12-11T00:51:22.063Z,11.80
2018-12-11T00:53:50.250Z,13.32
2018-12-11T00:56:18.257Z,8.55
2018-12-11T00:58:46.293Z,6.03
2018-12-11T01:01:14.317Z,8.98
2018-12-11T01:03:42.359Z,9.25
2018-12-11T01:06:10.373Z,11.53
2018-12-11T01:08:38.382Z,8.65
2018-12-11T01:11:06.423Z,14.28
2018-12-11T01:13:35.153Z,13.60
2018-12-11T01:16:03.270Z,9.70
2018-12-11T01:18:31.277Z,9.83
2018-12-11T01:20:59.333Z,8.60
2018-12-11T01:23:28.426Z,9.78
2018-12-11T01:25:56.437Z,10.58
2018-12-11T01:28:24.447Z,9.03
2018-12-11T01:30:52.477Z,14.43
2018-12-11T01:33:20.700Z,11.70
2018-12-11T01:35:48.732Z,14.53
2018-12-11T01:38:16.723Z,14.25
2018-12-11T01:40:44.762Z,13.50
2018-12-11T01:43:12.779Z,16.37
2018-12-11T01:45:40.806Z,11.28
2018-12-11T01:48:08.832Z,14.65
2018-12-11T01:50:36.913Z,9.40
2018-12-11T01:53:05.704Z,9.80
2018-12-11T01:55:33.714Z,9.03
2018-12-11T01:58:01.743Z,10.43
2018-12-11T02:00:29.771Z,14.07
2018-12-11T02:02:57.797Z,15.20
2018-12-11T02:05:25.814Z,12.95
2018-12-11T02:07:53.961Z,15.65
2018-12-11T02:10:21.986Z,13.95
2018-12-11T02:12:50.009Z,16.73
2018-12-11T02:15:18.022Z,17.45
2018-12-11T02:17:48.768Z,13.93
2018-12-11T02:20:16.814Z,18.27
2018-12-11T02:22:44.829Z,15.08
2018-12-11T02:25:13.008Z,12.20
2018-12-11T02:27:41.046Z,17.25
2018-12-11T02:30:10.107Z,19.20
2018-12-11T02:32:38.112Z,12.20
2018-12-11T02:35:06.243Z,15.43
2018-12-11T02:37:34.277Z,15.55
2018-12-11T02:40:02.339Z,11.53
2018-12-11T02:42:33.243Z,14.93
2018-12-11T02:45:01.269Z,12.05
2018-12-11T02:47:29.285Z,11.97
2018-12-11T02:49:57.302Z,15.68
2018-12-11T02:52:25.660Z,18.80
2018-12-11T02:54:53.675Z,17.75
2018-12-11T02:57:21.691Z,12.47
2018-12-11T02:59:49.729Z,17.32
2018-12-11T03:02:18.451Z,18.52
2018-12-11T03:04:46.559Z,20.35
2018-12-11T03:07:14.578Z,14.07
2018-12-11T03:09:44.116Z,16.07
2018-12-11T03:12:12.173Z,15.93
2018-12-11T03:14:40.191Z,19.48
2018-12-11T03:17:08.358Z,15.10
2018-12-11T03:19:36.386Z,19.48
2018-12-11T03:22:05.310Z,24.10
2018-12-11T03:24:33.330Z,15.43
2018-12-11T03:27:01.346Z,27.77
2018-12-11T03:29:29.457Z,46.50
2018-12-11T03:31:57.560Z,39.03
2018-12-11T03:34:26.613Z,20.60
2018-12-11T03:36:54.637Z,17.60
2018-12-11T03:39:22.656Z,17.92
2018-12-11T03:41:50.777Z,17.62
2018-12-11T03:44:18.908Z,23.57
2018-12-11T03:46:47.107Z,20.02
2018-12-11T03:49:15.130Z,19.70
2018-12-11T03:51:55.216Z,26.23
2018-12-11T03:54:23.216Z,19.02
2018-12-11T03:56:51.248Z,23.62
2018-12-11T03:59:19.254Z,19.37
2018-12-11T04:01:48.295Z,20.08
2018-12-11T04:04:16.306Z,17.73
2018-12-11T04:06:44.350Z,22.32
2018-12-11T04:09:12.393Z,23.83
2018-12-11T04:11:40.539Z,21.57
2018-12-11T04:14:08.657Z,25.08
2018-12-11T04:16:36.792Z,21.65
2018-12-11T04:19:04.825Z,21.85
2018-12-11T04:21:32.966Z,22.87
2018-12-11T04:24:00.979Z,28.32
2018-12-11T04:26:29.016Z,24.60
2018-12-11T04:28:57.041Z,23.27
2018-12-11T04:31:25.056Z,24.18
2018-12-11T04:33:53.095Z,23.80
2018-12-11T04:36:21.298Z,26.73
2018-12-11T04:38:49.302Z,30.60
2018-12-11T04:41:17.342Z,27.25
2018-12-11T04:43:45.362Z,26.25
2018-12-11T04:46:13.402Z,27.15
2018-12-11T04:48:41.434Z,33.15
2018-12-11T04:51:09.470Z,27.73
2018-12-11T04:53:37.503Z,30.17
2018-12-11T04:56:05.519Z,25.82
2018-12-11T04:58:33.551Z,29.30
2018-12-11T05:01:01.557Z,23.38
2018-12-11T05:03:29.585Z,26.07
2018-12-11T05:05:57.615Z,20.45
2018-12-11T05:08:25.937Z,21.93
2018-12-11T05:10:53.986Z,28.65
2018-12-11T05:13:22.003Z,17.25
2018-12-11T05:15:50.046Z,18.92
2018-12-11T05:18:18.081Z,23.47
2018-12-11T05:20:46.197Z,31.20
2018-12-11T05:23:14.225Z,30.08
2018-12-11T05:25:42.254Z,24.92
2018-12-11T05:28:10.332Z,23.50
2018-12-11T05:30:38.369Z,22.62
2018-12-11T05:33:06.413Z,20.55
2018-12-11T05:35:34.548Z,20.60
2018-12-11T05:38:02.720Z,29.18
2018-12-11T05:40:30.774Z,24.35
2018-12-11T05:42:58.791Z,22.07
2018-12-11T05:45:26.846Z,20.65
2018-12-11T05:47:54.960Z,25.88
2018-12-11T05:50:23.032Z,27.67
2018-12-11T05:52:51.091Z,21.52
2018-12-11T05:55:19.105Z,24.05
2018-12-11T05:57:47.163Z,27.07
2018-12-11T06:00:15.194Z,26.82
2018-12-11T06:02:43.198Z,35.10
2018-12-11T06:05:11.359Z,34.70
2018-12-11T06:07:39.479Z,34.85
2018-12-11T06:10:08.263Z,36.20
2018-12-11T06:12:36.273Z,26.23
2018-12-11T06:15:04.519Z,34.88
2018-12-11T06:17:32.533Z,30.57
2018-12-11T06:20:00.561Z,38.45
2018-12-11T06:22:28.581Z,36.10
2018-12-11T06:24:56.622Z,40.15
2018-12-11T06:27:24.713Z,44.27
2018-12-11T06:29:52.731Z,46.90
2018-12-11T06:32:20.762Z,47.45
2018-12-11T06:34:48.819Z,41.13
2018-12-11T06:37:16.853Z,37.75
2018-12-11T06:39:44.866Z,40.80
2018-12-11T06:42:12.914Z,52.85
2018-12-11T06:44:40.980Z,43.20
2018-12-11T06:47:09.080Z,40.25
2018-12-11T06:49:37.639Z,46.13
2018-12-11T06:52:06.327Z,57.13
2018-12-11T06:54:34.406Z,64.25
2018-12-11T06:57:02.435Z,69.25
2018-12-11T06:59:30.455Z,61.68
2018-12-11T07:01:58.484Z,67.70
2018-12-11T07:04:26.515Z,61.68
2018-12-11T07:06:54.656Z,67.32
2018-12-11T07:09:22.751Z,63.92
2018-12-11T07:11:50.831Z,54.55
2018-12-11T07:14:19.026Z,47.25
2018-12-11T07:16:47.035Z,48.05
2018-12-11T07:19:15.056Z,49.23
2018-12-11T07:21:43.228Z,43.13
2018-12-11T07:24:11.248Z,47.30
2018-12-11T07:26:39.420Z,51.90
2018-12-11T07:29:07.455Z,48.73
2018-12-11T07:31:35.477Z,55.15
2018-12-11T07:34:03.504Z,54.18
2018-12-11T07:36:31.539Z,46.70
2018-12-11T07:38:59.578Z,50.85
2018-12-11T07:41:27.649Z,42.65
2018-12-11T07:43:55.679Z,49.53
2018-12-11T07:46:23.810Z,50.92
2018-12-11T07:48:51.849Z,51.63
2018-12-11T07:51:19.868Z,56.88
2018-12-11T07:53:47.906Z,51.80
2018-12-11T07:56:15.915Z,44.38
2018-12-11T07:58:43.967Z,38.73
2018-12-11T08:01:12.057Z,53.60
2018-12-11T08:03:40.079Z,60.30
2018-12-11T08:06:08.106Z,491.50
2018-12-11T08:08:36.131Z,91.22
2018-12-11T08:11:04.170Z,59.98
2018-12-11T08:13:32.209Z,39.58
2018-12-11T08:16:00.222Z,36.98
2018-12-11T08:18:28.273Z,40.10
2018-12-11T08:20:56.310Z,42.17
2018-12-11T08:23:24.349Z,42.48
2018-12-11T08:25:52.405Z,52.23
2018-12-11T08:28:20.454Z,45.67
2018-12-11T08:30:48.489Z,46.15
2018-12-11T08:33:16.621Z,49.77
2018-12-11T08:35:44.699Z,47.48
2018-12-11T08:38:12.821Z,51.92
2018-12-11T08:40:40.877Z,47.25
2018-12-11T08:43:08.910Z,47.23
2018-12-11T08:45:36.939Z,47.23
2018-12-11T08:48:05.015Z,50.45
2018-12-11T08:50:33.028Z,48.80
2018-12-11T08:53:01.078Z,44.80
2018-12-11T08:55:29.174Z,46.88
2018-12-11T08:57:57.246Z,42.62
2018-12-11T09:00:25.325Z,44.70
2018-12-11T09:02:53.486Z,40.08
2018-12-11T09:05:21.565Z,50.25
2018-12-11T09:07:49.623Z,52.78
2018-12-11T09:10:17.643Z,39.85
2018-12-11T09:12:45.664Z,40.75
2018-12-11T09:15:13.706Z,39.88
2018-12-11T09:17:41.730Z,45.00
2018-12-11T09:20:09.775Z,35.68
2018-12-11T09:22:37.782Z,42.58
2018-12-11T09:25:06.199Z,34.20
2018-12-11T09:27:34.278Z,33.42
2018-12-11T09:30:02.890Z,33.98
2018-12-11T09:32:30.994Z,40.95
2018-12-11T09:34:59.022Z,31.50
2018-12-11T09:37:27.076Z,32.78
2018-12-11T09:39:55.131Z,36.73
2018-12-11T09:42:27.851Z,30.90
2018-12-11T09:44:53.410Z,34.57
2018-12-11T09:47:21.426Z,26.63
2018-12-11T09:49:49.484Z,29.03
2018-12-11T09:52:17.645Z,32.73
2018-12-11T09:54:45.646Z,30.53
2018-12-11T09:57:13.698Z,48.60
2018-12-11T09:59:41.770Z,30.40
2018-12-11T10:02:09.800Z,23.10
2018-12-11T10:04:37.830Z,24.40
2018-12-11T10:07:05.876Z,31.03
2018-12-11T10:09:33.930Z,28.23
2018-12-11T10:12:01.949Z,30.07
2018-12-11T10:14:30.097Z,23.47
2018-12-11T10:16:58.098Z,32.93
2018-12-11T10:19:26.156Z,33.10
2018-12-11T10:21:54.204Z,29.77
2018-12-11T10:24:24.737Z,37.43
2018-12-11T10:26:53.494Z,29.27
2018-12-11T10:29:21.525Z,37.83
2018-12-11T10:31:49.582Z,40.40
2018-12-11T10:34:17.613Z,46.83
2018-12-11T10:36:45.740Z,47.00
2018-12-11T10:39:13.863Z,45.60
2018-12-11T10:41:41.875Z,36.43
2018-12-11T10:44:09.892Z,41.13
2018-12-11T10:46:37.920Z,38.33
2018-12-11T10:49:05.944Z,50.30
2018-12-11T10:51:33.982Z,66.43
2018-12-11T10:54:02.015Z,53.27
2018-12-11T10:56:30.134Z,40.70
2018-12-11T10:58:58.186Z,49.57
2018-12-11T11:01:27.218Z,37.23
2018-12-11T11:03:55.348Z,32.33
2018-12-11T11:06:23.399Z,115.17
2018-12-11T11:08:51.468Z,28.90
2018-12-11T11:11:19.506Z,28.23
2018-12-11T11:13:47.648Z,25.17
2018-12-11T11:16:15.020Z,33.17
2018-12-11T11:18:43.663Z,25.53
2018-12-11T11:21:11.730Z,27.37
2018-12-11T11:23:39.733Z,32.37
2018-12-11T11:26:07.823Z,30.13
2018-12-11T11:28:35.866Z,29.40
2018-12-11T11:31:03.896Z,29.60
2018-12-11T11:33:31.979Z,32.83
2018-12-11T11:36:00.044Z,32.40
2018-12-11T11:38:28.077Z,28.13
2018-12-11T11:41:02.748Z,25.40
2018-12-11T11:43:30.822Z,27.87
2018-12-11T11:45:58.868Z,30.37
2018-12-11T11:48:26.894Z,33.17
2018-12-11T11:50:54.929Z,23.43
2018-12-11T11:53:22.982Z,23.77
2018-12-11T11:55:51.053Z,30.43
2018-12-11T11:58:19.071Z,27.63
2018-12-11T12:00:47.091Z,26.53
2018-12-11T12:03:15.133Z,21.53
2018-12-11T12:05:43.193Z,23.20
2018-12-11T12:08:11.220Z,24.33
2018-12-11T12:10:39.238Z,26.20
2018-12-11T12:13:07.244Z,19.77
2018-12-11T12:15:35.270Z,24.10
2018-12-11T12:18:03.401Z,20.03
2018-12-11T12:20:31.487Z,21.70
2018-12-11T12:22:59.521Z,26.53
2018-12-11T12:25:27.537Z,27.13
2018-12-11T12:27:55.557Z,24.90
2018-12-11T12:30:25.579Z,23.77
2018-12-11T12:32:53.617Z,20.87
2018-12-11T12:35:21.781Z,22.43
2018-12-11T12:37:49.816Z,25.03
2018-12-11T12:40:17.927Z,24.40
2018-12-11T12:42:45.959Z,28.00
2018-12-11T12:45:14.013Z,24.53
2018-12-11T12:47:42.045Z,25.90
2018-12-11T12:50:10.093Z,23.70
2018-12-11T12:52:38.114Z,23.60
2018-12-11T12:55:06.257Z,24.27
2018-12-11T12:57:34.301Z,23.03
2018-12-11T13:00:02.355Z,25.13
2018-12-11T13:02:30.393Z,29.27
2018-12-11T13:04:58.446Z,21.30
2018-12-11T13:07:26.512Z,22.67
2018-12-11T13:09:54.637Z,24.80
2018-12-11T13:12:22.719Z,23.53
2018-12-11T13:14:50.737Z,27.87
2018-12-11T13:17:18.809Z,61.37
2018-12-11T13:19:47.019Z,63.50
2018-12-11T13:22:15.051Z,27.03
2018-12-11T13:24:43.110Z,27.17
2018-12-11T13:27:11.148Z,27.27
2018-12-11T13:29:39.180Z,26.33
2018-12-11T13:32:07.308Z,28.97
2018-12-11T13:34:35.372Z,22.60
2018-12-11T13:37:03.524Z,30.10
2018-12-11T13:39:31.575Z,20.60
2018-12-11T13:41:59.831Z,22.33
2018-12-11T13:44:27.859Z,23.73
2018-12-11T13:46:56.095Z,23.13
2018-12-11T13:49:25.729Z,23.10
2018-12-11T13:51:53.775Z,24.10
2018-12-11T13:54:21.823Z,22.70
2018-12-11T13:56:49.875Z,20.73
2018-12-11T13:59:17.916Z,27.77
2018-12-11T14:01:46.079Z,24.63
2018-12-11T14:04:14.109Z,28.27
2018-12-11T14:06:42.158Z,25.70
2018-12-11T14:09:15.830Z,58.90
2018-12-11T14:11:43.872Z,37.87
2018-12-11T14:14:11.981Z,27.98
2018-12-11T14:16:40.155Z,24.90
2018-12-11T14:19:08.295Z,22.37
2018-12-11T14:21:36.514Z,25.90
2018-12-11T14:24:04.557Z,25.68
2018-12-11T14:26:32.633Z,21.87
2018-12-11T14:29:00.858Z,29.87
2018-12-11T14:31:28.894Z,21.85
2018-12-11T14:33:56.988Z,19.13
2018-12-11T14:36:25.030Z,20.43
2018-12-11T14:38:53.069Z,22.57
2018-12-11T14:41:21.803Z,18.92
2018-12-11T14:43:49.929Z,23.93
2018-12-11T14:46:17.967Z,21.68
2018-12-11T14:48:46.009Z,18.87
2018-12-11T14:51:14.091Z,23.23
2018-12-11T14:53:42.249Z,22.22
2018-12-11T14:56:10.352Z,22.42
2018-12-11T14:58:38.393Z,17.48
2018-12-11T15:01:06.473Z,21.07
2018-12-11T15:03:34.574Z,21.37
2018-12-11T15:06:02.601Z,19.40
2018-12-11T15:08:30.649Z,23.20
2018-12-11T15:10:58.737Z,25.67
2018-12-11T15:13:26.798Z,22.63
2018-12-11T15:15:54.831Z,20.50
2018-12-11T15:18:22.844Z,26.73
2018-12-11T15:20:50.890Z,26.68
2018-12-11T15:23:18.981Z,27.62
2018-12-11T15:25:47.042Z,34.90
2018-12-11T15:28:15.097Z,27.17
2018-12-11T15:30:43.137Z,28.30
2018-12-11T15:33:11.467Z,37.88
2018-12-11T15:35:39.525Z,31.15
2018-12-11T15:38:07.571Z,29.98
2018-12-11T15:40:35.650Z,36.53
2018-12-11T15:43:04.055Z,45.08
2018-12-11T15:45:32.081Z,42.58
2018-12-11T15:48:00.135Z,38.08
2018-12-11T15:50:28.191Z,37.40
2018-12-11T15:52:56.232Z,45.03
2018-12-11T15:55:24.397Z,43.90
2018-12-11T15:57:52.450Z,48.10
2018-12-11T16:00:20.509Z,61.48
2018-12-11T16:02:48.565Z,52.48
2018-12-11T16:05:16.593Z,52.95
2018-12-11T16:07:44.647Z,49.75
2018-12-11T16:10:12.685Z,48.33
2018-12-11T16:12:40.743Z,201.70
2018-12-11T16:15:08.851Z,124.75
2018-12-11T16:17:36.915Z,72.15
2018-12-11T16:20:05.181Z,54.20
2018-12-11T16:22:33.254Z,47.40
2018-12-11T16:25:01.405Z,50.88
2018-12-11T16:27:29.701Z,45.70
2018-12-11T16:29:57.829Z,54.70
2018-12-11T16:32:25.882Z,47.78
2018-12-11T16:34:54.098Z,50.33
2018-12-11T16:37:22.334Z,44.15
2018-12-11T16:39:50.390Z,45.73
2018-12-11T16:42:18.455Z,60.00
2018-12-11T16:44:46.525Z,57.15
2018-12-11T16:47:14.608Z,52.75
2018-12-11T16:49:42.741Z,54.83
2018-12-11T16:52:10.853Z,49.23
2018-12-11T16:54:38.956Z,45.92
2018-12-11T16:57:06.996Z,40.90
2018-12-11T16:59:35.091Z,44.60
2018-12-11T17:02:03.271Z,56.77
2018-12-11T17:04:31.343Z,62.40
2018-12-11T17:06:59.426Z,77.17
2018-12-11T17:09:27.505Z,67.62
2018-12-11T17:11:55.711Z,65.17
2018-12-11T17:14:23.786Z,74.12
2018-12-11T17:16:51.874Z,68.97
2018-12-11T17:19:19.925Z,63.02
2018-12-11T17:21:48.027Z,52.73
2018-12-11T17:24:16.100Z,68.62
2018-12-11T17:26:44.218Z,52.58
2018-12-11T17:29:12.280Z,62.55
2018-12-11T17:31:40.377Z,84.55
2018-12-11T17:34:08.451Z,113.92
2018-12-11T17:36:36.557Z,75.80
2018-12-11T17:39:06.143Z,63.08
2018-12-11T17:41:34.295Z,58.30
2018-12-11T17:44:02.528Z,48.20
2018-12-11T17:46:30.633Z,54.63
2018-12-11T17:48:58.718Z,56.02
2018-12-11T17:51:26.823Z,70.62
2018-12-11T17:53:54.928Z,141.75
2018-12-11T17:56:23.385Z,129.32
2018-12-11T17:58:51.475Z,91.20
2018-12-11T18:01:20.779Z,100.65
2018-12-11T18:03:48.915Z,72.10
2018-12-11T18:06:17.007Z,72.55
2018-12-11T18:08:45.143Z,58.40
2018-12-11T18:11:14.079Z,54.88
2018-12-11T18:13:42.682Z,47.33
2018-12-11T18:16:10.838Z,52.05
2018-12-11T18:18:39.554Z,169.87
2018-12-11T18:21:07.724Z,107.10
2018-12-11T18:23:35.842Z,71.65
2018-12-11T18:26:04.418Z,59.13
2018-12-11T18:28:32.530Z,55.12
2018-12-11T18:31:01.291Z,49.23
2018-12-11T18:33:29.438Z,48.78
2018-12-11T18:35:57.567Z,48.83
2018-12-11T18:38:26.444Z,47.75
2018-12-11T18:40:54.603Z,44.98
2018-12-11T18:43:22.724Z,46.13
2018-12-11T18:45:50.855Z,44.18
2018-12-11T18:48:18.995Z,47.05
2018-12-11T18:50:47.138Z,41.50
2018-12-11T18:53:16.008Z,41.73
2018-12-11T18:55:44.226Z,44.58
2018-12-11T18:58:12.380Z,45.73
2018-12-11T19:00:40.516Z,45.92
2018-12-11T19:03:08.676Z,45.95
2018-12-11T19:05:37.531Z,43.78
2018-12-11T19:08:05.832Z,51.40
2018-12-11T19:10:33.986Z,48.20
2018-12-11T19:13:02.496Z,45.20
2018-12-11T19:15:30.673Z,46.42
2018-12-11T19:17:58.969Z,41.55
2018-12-11T19:20:27.457Z,38.15
2018-12-11T19:23:00.576Z,37.65
2018-12-11T19:25:28.962Z,74.45
2018-12-11T19:27:57.609Z,56.08
2018-12-11T19:30:28.422Z,52.78
2018-12-11T19:32:56.552Z,40.60
2018-12-11T19:35:25.242Z,43.73
2018-12-11T19:37:53.406Z,39.58
2018-12-11T19:40:22.069Z,34.27
2018-12-11T19:42:51.617Z,39.10
2018-12-11T19:45:20.721Z,37.98
2018-12-11T19:47:48.891Z,38.13
2018-12-11T19:50:17.078Z,47.78
2018-12-11T19:52:45.493Z,54.42
2018-12-11T19:55:14.019Z,71.50
2018-12-11T19:57:42.276Z,81.80
2018-12-11T20:00:10.924Z,80.42
2018-12-11T20:02:39.957Z,73.87
2018-12-11T20:05:08.364Z,82.15
2018-12-11T20:07:38.127Z,75.22
2018-12-11T20:10:12.149Z,95.42
2018-12-11T20:12:40.330Z,131.37
2018-12-11T20:15:08.637Z,103.05
2018-12-11T20:17:38.070Z,118.28
2018-12-11T20:20:06.607Z,224.62
2018-12-11T20:22:40.249Z,118.20
2018-12-11T20:25:12.237Z,93.85
2018-12-11T20:27:41.148Z,116.90
2018-12-11T20:30:09.831Z,156.63
2018-12-11T20:32:39.601Z,216.08
2018-12-11T20:35:09.983Z,166.97
2018-12-11T20:37:38.466Z,222.52
2018-12-11T20:40:07.374Z,69.67
2018-12-11T20:42:35.552Z,166.12
2018-12-11T20:45:04.146Z,82.53
2018-12-11T20:47:32.450Z,161.85
2018-12-11T20:50:01.961Z,106.80
2018-12-11T20:52:30.490Z,276.62
2018-12-11T20:54:59.632Z,201.85
2018-12-11T20:57:29.524Z,227.97
2018-12-11T20:59:58.597Z,236.85
2018-12-11T21:02:26.777Z,170.22
2018-12-11T21:04:54.947Z,150.07
2018-12-11T21:07:23.915Z,201.65
2018-12-11T21:09:52.554Z,223.80
2018-12-11T21:12:20.721Z,72.87
2018-12-11T21:14:48.891Z,101.18
2018-12-11T21:17:17.337Z,135.97
2018-12-11T21:19:45.523Z,326.65
2018-12-11T21:22:22.423Z,122.40
2018-12-11T21:24:50.723Z,69.47
2018-12-11T21:27:18.875Z,110.52
2018-12-11T21:29:48.760Z,96.90
2018-12-11T21:32:16.940Z,57.35
2018-12-11T21:34:45.785Z,96.20
2018-12-11T21:37:13.950Z,74.50
2018-12-11T21:39:42.076Z,101.35
2018-12-11T21:42:10.906Z,89.20
2018-12-11T21:44:39.117Z,117.67
2018-12-11T21:47:07.274Z,125.87
2018-12-11T21:49:35.720Z,93.10
2018-12-11T21:52:03.886Z,110.90
2018-12-11T21:54:31.998Z,84.03
2018-12-11T21:57:00.472Z,293.42
2018-12-11T21:59:29.277Z,284.62
2018-12-11T22:01:58.233Z,247.63
2018-12-11T22:04:26.358Z,215.20
2018-12-11T22:06:55.110Z,251.52
2018-12-11T22:09:23.732Z,138.68
2018-12-11T22:11:51.839Z,199.85
2018-12-11T22:14:20.268Z,111.57
2018-12-11T22:16:48.473Z,69.30
2018-12-11T22:19:16.587Z,59.55
2018-12-11T22:21:45.591Z,57.50
2018-12-11T22:24:13.693Z,48.58
2018-12-11T22:26:41.793Z,49.30
2018-12-11T22:29:10.719Z,59.58
2018-12-11T22:31:38.807Z,48.25
2018-12-11T22:34:06.871Z,45.50
2018-12-11T22:36:34.950Z,51.35
2018-12-11T22:39:04.687Z,45.88
2018-12-11T22:41:32.771Z,43.68
2018-12-11T22:44:00.810Z,43.60
2018-12-11T22:46:28.855Z,45.98
2018-12-11T22:48:56.885Z,53.50
2018-12-11T22:51:25.282Z,48.65
2018-12-11T22:53:53.329Z,51.40
2018-12-11T22:56:21.562Z,44.63
2018-12-11T22:58:49.593Z,47.60
2018-12-11T23:01:17.620Z,42.43
2018-12-11T23:03:45.720Z,44.83
2018-12-11T23:06:13.758Z,49.77
2018-12-11T23:08:41.776Z,51.13
2018-12-11T23:11:09.854Z,45.30
2018-12-11T23:13:37.892Z,40.95
2018-12-11T23:16:05.911Z,41.73
2018-12-11T23:18:33.923Z,45.60
2018-12-11T23:21:02.288Z,50.83
2018-12-11T23:23:30.458Z,51.20
2018-12-11T23:25:58.493Z,57.48
2018-12-11T23:28:26.506Z,154.18
2018-12-11T23:30:54.528Z,185.12
2018-12-11T23:33:22.668Z,174.42
2018-12-11T23:35:50.694Z,151.32
2018-12-11T23:38:18.724Z,132.05
2018-12-11T23:40:46.768Z,161.50
2018-12-11T23:43:14.852Z,305.27
2018-12-11T23:45:42.871Z,189.18
2018-12-11T23:48:10.932Z,285.98
2018-12-11T23:50:38.978Z,229.18
2018-12-11T23:53:07.000Z,298.73
2018-12-11T23:55:35.030Z,372.35
2018-12-11T23:58:03.052Z,277.57
